Time;durP1;ratioP1;P1;durP2;ratioP2;P2;SDS_P1;SDS_P2;PMS_P1;PMS_P2;Temp;Humidity;BMP_temperature;BMP_pressure;BME280_temperature;BME280_humidity;BME280_pressure;Samples;Min_cycle;Max_cycle;Signal;HPM_P1;HPM_P2
2022/01/11 00:01:21;;;;;;;53.97;25.25;;;0.00;99.90;;;;;;5034238;28;20056;-61
2022/01/11 00:03:47;;;;;;;49.88;24.15;;;0.00;99.90;;;;;;5038842;28;20476;-61
2022/01/11 00:06:31;;;;;;;53.13;24.33;;;0.00;99.90;;;;;;5036078;28;20036;-61
2022/01/11 00:09:01;;;;;;;51.50;25.33;;;0.00;99.90;;;;;;5040671;28;20052;-61
2022/01/11 00:11:28;;;;;;;53.15;26.20;;;0.00;99.90;;;;;;5041359;28;20025;-61
2022/01/11 00:13:53;;;;;;;51.60;25.42;;;0.00;99.90;;;;;;5037875;28;20445;-60
2022/01/11 00:16:19;;;;;;;49.30;23.73;;;0.00;99.90;;;;;;5036507;28;20112;-61
2022/01/11 00:18:44;;;;;;;51.33;24.83;;;0.00;99.90;;;;;;5039246;28;20037;-60
2022/01/11 00:21:11;;;;;;;52.10;25.15;;;0.00;99.90;;;;;;5040353;28;20033;-61
2022/01/11 00:26:03;;;;;;;53.70;26.27;;;0.00;99.90;;;;;;5045500;28;20052;-61
2022/01/11 00:28:30;;;;;;;52.05;25.98;;;0.00;99.90;;;;;;5033584;28;20064;-61
2022/01/11 00:30:56;;;;;;;51.05;24.17;;;-0.10;99.90;;;;;;5036161;28;20033;-60
2022/01/11 00:33:30;;;;;;;52.53;25.40;;;-0.10;99.90;;;;;;5043195;28;20104;-61
2022/01/11 00:35:58;;;;;;;51.63;25.90;;;0.00;99.90;;;;;;5034924;28;20124;-61
2022/01/11 00:38:25;;;;;;;57.42;26.40;;;-0.10;99.90;;;;;;5031869;28;20049;-61
2022/01/11 00:40:53;;;;;;;60.47;27.55;;;-0.10;99.90;;;;;;5040531;28;20377;-61
2022/01/11 00:43:21;;;;;;;54.72;26.23;;;-0.10;99.90;;;;;;5033181;28;20041;-61
2022/01/11 00:45:47;;;;;;;51.40;25.13;;;-0.10;99.90;;;;;;5032053;28;20413;-61
2022/01/11 00:48:13;;;;;;;61.33;27.80;;;0.00;99.90;;;;;;5042597;28;20030;-61
2022/01/11 00:50:39;;;;;;;51.33;27.02;;;0.00;99.90;;;;;;5034576;28;20029;-61
2022/01/11 00:53:06;;;;;;;50.10;26.15;;;0.00;99.90;;;;;;5037470;28;20091;-61
2022/01/11 00:55:32;;;;;;;61.28;28.73;;;0.00;99.90;;;;;;5045311;28;20147;-61
2022/01/11 00:57:58;;;;;;;63.15;30.08;;;0.10;99.90;;;;;;5034532;28;20547;-61
2022/01/11 01:00:24;;;;;;;69.03;29.27;;;0.10;99.90;;;;;;5034451;28;20100;-61
2022/01/11 01:02:49;;;;;;;57.47;27.45;;;0.20;99.90;;;;;;5037098;28;20104;-61
2022/01/11 01:05:17;;;;;;;62.10;27.92;;;0.20;99.90;;;;;;5034148;28;20539;-61
2022/01/11 01:07:44;;;;;;;62.60;27.95;;;0.30;99.90;;;;;;5035789;28;20083;-61
2022/01/11 01:10:23;;;;;;;60.40;28.65;;;0.30;99.90;;;;;;5037857;28;20029;-61
2022/01/11 01:12:48;;;;;;;66.50;29.40;;;0.30;99.90;;;;;;5034551;28;20113;-61
2022/01/11 01:15:14;;;;;;;61.20;29.27;;;0.30;99.90;;;;;;5033722;28;20120;-61
2022/01/11 01:17:40;;;;;;;66.22;31.13;;;0.40;99.90;;;;;;5035729;28;20051;-61
2022/01/11 01:20:07;;;;;;;63.30;29.25;;;0.40;99.90;;;;;;5039429;28;20083;-61
2022/01/11 01:22:32;;;;;;;66.30;30.77;;;0.40;99.90;;;;;;5033936;28;20454;-61
2022/01/11 01:24:58;;;;;;;64.07;27.98;;;0.40;99.90;;;;;;5043779;28;20029;-61
2022/01/11 01:27:24;;;;;;;61.50;29.60;;;0.50;99.90;;;;;;5031310;28;20024;-61
2022/01/11 01:29:49;;;;;;;65.70;31.17;;;0.50;99.90;;;;;;5036555;28;20531;-61
2022/01/11 01:32:15;;;;;;;65.70;30.50;;;0.50;99.90;;;;;;5036721;28;20025;-61
2022/01/11 01:34:40;;;;;;;74.25;30.65;;;0.50;99.90;;;;;;5030889;28;20075;-61
2022/01/11 01:37:07;;;;;;;61.60;27.52;;;0.50;99.90;;;;;;5036529;28;20026;-61
2022/01/11 01:39:33;;;;;;;60.53;28.73;;;0.50;99.90;;;;;;5036272;28;20543;-61
2022/01/11 01:42:01;;;;;;;61.45;29.40;;;0.50;99.90;;;;;;5044460;28;20025;-60
2022/01/11 01:44:26;;;;;;;65.47;29.00;;;0.50;99.90;;;;;;5035374;28;20026;-60
2022/01/11 01:46:52;;;;;;;64.00;28.60;;;0.50;99.90;;;;;;5036356;28;20021;-60
2022/01/11 01:49:19;;;;;;;64.40;30.77;;;0.50;99.90;;;;;;5033159;28;20397;-61
2022/01/11 01:51:46;;;;;;;58.20;28.38;;;0.40;99.90;;;;;;5032185;28;20022;-61
2022/01/11 01:54:13;;;;;;;61.83;28.17;;;0.40;99.90;;;;;;5036454;28;20025;-61
2022/01/11 01:57:00;;;;;;;57.28;26.83;;;0.40;99.90;;;;;;5031546;28;20025;-61
2022/01/11 01:59:28;;;;;;;59.05;26.70;;;0.40;99.90;;;;;;5032993;28;20457;-60
2022/01/11 02:01:55;;;;;;;56.67;27.27;;;0.40;99.90;;;;;;5035773;28;20061;-60
2022/01/11 02:04:21;;;;;;;63.63;30.10;;;0.40;99.90;;;;;;5033557;28;20060;-61
2022/01/11 02:06:47;;;;;;;61.08;28.25;;;0.40;99.90;;;;;;5036060;28;20065;-61
2022/01/11 02:09:17;;;;;;;59.58;27.83;;;0.40;99.90;;;;;;5038128;28;20029;-61
2022/01/11 02:11:43;;;;;;;65.78;27.95;;;0.30;99.90;;;;;;5032940;28;20021;-61
2022/01/11 02:14:09;;;;;;;66.43;29.67;;;0.40;99.90;;;;;;5035799;28;20493;-61
2022/01/11 02:16:35;;;;;;;55.50;27.08;;;0.30;99.90;;;;;;5038516;28;20386;-61
2022/01/11 02:19:01;;;;;;;63.80;28.98;;;0.30;99.90;;;;;;5030847;28;20539;-61
2022/01/11 02:21:26;;;;;;;65.07;28.83;;;0.30;99.90;;;;;;5032915;28;20033;-61
2022/01/11 02:23:54;;;;;;;61.13;28.20;;;0.20;99.90;;;;;;5033148;28;20396;-61
2022/01/11 02:26:20;;;;;;;65.47;30.42;;;0.20;99.90;;;;;;5032859;28;20435;-60
2022/01/11 02:28:45;;;;;;;61.55;28.52;;;0.20;99.90;;;;;;5035719;28;20021;-61
2022/01/11 02:31:14;;;;;;;66.95;29.13;;;0.20;99.90;;;;;;5032708;28;20401;-60
2022/01/11 02:33:46;;;;;;;60.97;27.75;;;0.10;99.90;;;;;;5035476;28;20025;-61
2022/01/11 02:36:23;;;;;;;63.88;26.73;;;0.10;99.90;;;;;;5033201;28;20386;-61
2022/01/11 02:38:52;;;;;;;52.63;25.70;;;0.10;99.90;;;;;;5032711;28;20030;-61
2022/01/11 02:41:18;;;;;;;59.15;26.60;;;0.00;99.90;;;;;;5035107;28;20025;-60
2022/01/11 02:43:47;;;;;;;60.13;25.67;;;0.00;99.90;;;;;;5032551;28;20025;-61
2022/01/11 02:46:14;;;;;;;59.47;26.25;;;-0.10;99.90;;;;;;5035441;28;20029;-61
2022/01/11 02:48:39;;;;;;;56.85;26.55;;;-0.10;99.90;;;;;;5037940;28;20021;-61
2022/01/11 02:51:05;;;;;;;54.28;25.85;;;-0.10;99.90;;;;;;5034974;28;20033;-63
2022/01/11 02:53:31;;;;;;;57.53;26.98;;;-0.10;99.90;;;;;;5040764;28;20465;-61
2022/01/11 02:55:57;;;;;;;58.47;26.65;;;-0.10;99.90;;;;;;5042962;28;20397;-61
2022/01/11 02:58:23;;;;;;;63.40;27.50;;;-0.10;99.90;;;;;;5035061;28;20491;-61
2022/01/11 03:00:49;;;;;;;60.30;26.95;;;-0.10;99.90;;;;;;5032211;28;20029;-61
2022/01/11 03:03:20;;;;;;;58.72;25.98;;;-0.10;99.90;;;;;;5032263;28;20041;-61
2022/01/11 03:05:51;;;;;;;63.45;28.88;;;0.00;99.90;;;;;;5033770;28;20503;-61
2022/01/11 03:08:18;;;;;;;59.42;27.33;;;0.00;99.90;;;;;;5031612;28;20033;-61
2022/01/11 03:10:47;;;;;;;60.08;27.02;;;0.00;99.90;;;;;;5047948;28;20028;-61
2022/01/11 03:13:14;;;;;;;59.55;25.75;;;0.10;99.90;;;;;;5047324;28;20392;-61
2022/01/11 03:15:40;;;;;;;58.70;27.65;;;0.10;99.90;;;;;;5037988;28;20067;-61
2022/01/11 03:18:06;;;;;;;62.60;27.77;;;0.10;99.90;;;;;;5033554;28;20029;-61
2022/01/11 03:20:34;;;;;;;61.00;27.13;;;0.00;99.90;;;;;;5032805;28;20017;-61
2022/01/11 03:22:59;;;;;;;61.30;26.75;;;0.10;99.90;;;;;;5035846;28;20149;-61
2022/01/11 03:25:25;;;;;;;57.70;27.30;;;0.10;99.90;;;;;;5032480;28;20140;-61
2022/01/11 03:27:51;;;;;;;61.85;26.88;;;0.10;99.90;;;;;;5037719;28;20700;-61
2022/01/11 03:30:17;;;;;;;64.65;27.08;;;0.00;99.90;;;;;;5037567;28;20032;-61
2022/01/11 03:32:42;;;;;;;63.33;27.83;;;0.00;99.90;;;;;;5034436;28;20036;-61
2022/01/11 03:35:11;;;;;;;56.53;25.95;;;0.00;99.90;;;;;;5040064;28;20436;-61
2022/01/11 03:37:39;;;;;;;55.35;25.48;;;-0.10;99.90;;;;;;5036942;28;20036;-61
2022/01/11 03:40:07;;;;;;;50.92;24.75;;;-0.10;99.90;;;;;;5030318;28;20017;-61
2022/01/11 03:42:33;;;;;;;55.80;26.08;;;-0.10;99.90;;;;;;5034326;28;20106;-61
2022/01/11 03:45:06;;;;;;;60.13;27.17;;;-0.10;99.90;;;;;;5032166;28;20061;-61
2022/01/11 03:47:31;;;;;;;59.80;25.33;;;-0.10;99.90;;;;;;5035359;28;20013;-61
2022/01/11 03:49:57;;;;;;;60.65;27.33;;;-0.10;99.90;;;;;;5036284;28;20492;-61
2022/01/11 03:52:23;;;;;;;57.20;25.85;;;0.00;99.90;;;;;;5048124;28;20492;-61
2022/01/11 03:57:25;;;;;;;63.30;27.13;;;0.00;99.90;;;;;;5029240;28;20018;-61
2022/01/11 03:59:51;;;;;;;55.28;26.50;;;-0.10;99.90;;;;;;5031422;28;20508;-61
2022/01/11 04:02:16;;;;;;;63.88;27.00;;;-0.10;99.90;;;;;;5037213;28;20052;-61
2022/01/11 04:04:42;;;;;;;59.83;26.55;;;-0.10;99.90;;;;;;5036940;28;20454;-60
2022/01/11 04:07:08;;;;;;;64.15;28.73;;;-0.10;99.90;;;;;;5032690;28;20026;-61
2022/01/11 04:09:33;;;;;;;59.50;28.42;;;-0.10;99.90;;;;;;5031484;28;20037;-61
2022/01/11 04:11:59;;;;;;;57.25;27.75;;;-0.10;99.90;;;;;;5034227;28;20022;-61
2022/01/11 04:14:27;;;;;;;58.33;25.05;;;-0.10;99.90;;;;;;5034784;28;20025;-61
2022/01/11 04:16:53;;;;;;;57.17;26.83;;;-0.10;99.90;;;;;;5029576;28;20046;-60
2022/01/11 04:19:20;;;;;;;56.95;25.98;;;-0.10;99.90;;;;;;5031272;28;20029;-61
2022/01/11 04:21:45;;;;;;;64.05;28.27;;;-0.20;99.90;;;;;;5039727;28;20485;-60
2022/01/11 04:24:12;;;;;;;61.55;27.35;;;-0.20;99.90;;;;;;5034760;28;20034;-60
2022/01/11 04:26:39;;;;;;;66.30;28.90;;;-0.20;99.90;;;;;;5033904;28;20359;-61
2022/01/11 04:29:05;;;;;;;70.00;30.80;;;-0.20;99.90;;;;;;5028583;28;20041;-61
2022/01/11 04:31:31;;;;;;;70.13;29.75;;;-0.10;99.90;;;;;;5032439;28;20030;-61
2022/01/11 04:33:56;;;;;;;74.30;31.58;;;-0.10;99.90;;;;;;5046650;28;20024;-61
2022/01/11 04:36:22;;;;;;;72.00;30.75;;;-0.10;99.90;;;;;;5033862;28;20039;-61
2022/01/11 04:38:47;;;;;;;63.92;28.48;;;-0.10;99.90;;;;;;5031013;28;20112;-61
2022/01/11 04:41:13;;;;;;;69.32;29.88;;;-0.10;99.90;;;;;;5048769;28;20041;-61
2022/01/11 04:43:44;;;;;;;65.32;29.08;;;-0.10;99.90;;;;;;5028254;28;20032;-61
2022/01/11 04:46:10;;;;;;;66.70;30.52;;;-0.10;99.90;;;;;;5035354;28;20033;-60
2022/01/11 04:48:35;;;;;;;72.03;31.98;;;-0.10;99.90;;;;;;5035032;28;20037;-61
2022/01/11 04:51:04;;;;;;;62.90;28.73;;;-0.20;99.90;;;;;;5032056;28;20017;-61
2022/01/11 04:53:30;;;;;;;65.47;28.20;;;-0.10;99.90;;;;;;5034606;28;20524;-61
2022/01/11 04:55:56;;;;;;;65.57;29.20;;;-0.20;99.90;;;;;;5041565;28;20059;-61
2022/01/11 04:58:22;;;;;;;68.10;30.67;;;-0.20;99.90;;;;;;5037847;28;20034;-61
2022/01/11 05:00:48;;;;;;;67.22;30.05;;;-0.20;99.90;;;;;;5038984;28;20025;-61
2022/01/11 05:03:13;;;;;;;70.15;30.83;;;-0.20;99.90;;;;;;5034485;28;20037;-60
2022/01/11 05:05:39;;;;;;;65.30;29.13;;;-0.20;99.90;;;;;;5037252;28;20386;-60
2022/01/11 05:08:05;;;;;;;70.90;28.73;;;-0.20;99.90;;;;;;5034147;28;20038;-60
2022/01/11 05:10:31;;;;;;;64.43;29.88;;;-0.20;99.90;;;;;;5034386;28;20017;-61
2022/01/11 05:12:57;;;;;;;78.25;32.63;;;-0.10;99.90;;;;;;5034318;28;20146;-61
2022/01/11 05:15:25;;;;;;;81.30;34.72;;;-0.10;99.90;;;;;;5044876;28;20056;-61
2022/01/11 05:17:51;;;;;;;73.55;33.63;;;-0.10;99.90;;;;;;5040299;28;20029;-61
2022/01/11 05:20:17;;;;;;;72.80;33.40;;;-0.10;99.90;;;;;;5037403;28;20133;-61
2022/01/11 05:22:45;;;;;;;77.10;34.42;;;-0.10;99.90;;;;;;5034091;28;20026;-61
2022/01/11 05:25:12;;;;;;;75.75;33.10;;;-0.10;99.90;;;;;;5033902;28;20025;-61
2022/01/11 05:27:51;;;;;;;72.63;32.63;;;-0.10;99.90;;;;;;5033812;28;20026;-61
2022/01/11 05:30:17;;;;;;;72.07;31.38;;;-0.10;99.90;;;;;;5033009;28;20018;-61
2022/01/11 05:32:43;;;;;;;71.25;32.63;;;-0.10;99.90;;;;;;5039193;28;20517;-61
2022/01/11 05:35:10;;;;;;;70.55;33.65;;;-0.10;99.90;;;;;;5031230;28;20108;-61
2022/01/11 05:37:39;;;;;;;67.70;32.78;;;-0.10;99.90;;;;;;5035119;28;20116;-61
2022/01/11 05:40:07;;;;;;;65.10;30.92;;;-0.10;99.90;;;;;;5033623;28;20045;-61
2022/01/11 05:42:53;;;;;;;64.78;30.52;;;-0.20;99.90;;;;;;5036416;28;20025;-61
2022/01/11 05:45:19;;;;;;;70.22;33.53;;;-0.20;99.90;;;;;;5040297;28;20107;-61
2022/01/11 05:47:45;;;;;;;68.43;32.05;;;-0.20;99.90;;;;;;5030618;28;20021;-61
2022/01/11 05:50:12;;;;;;;69.88;31.38;;;-0.20;99.90;;;;;;5044743;28;20438;-61
2022/01/11 05:52:39;;;;;;;63.08;29.98;;;-0.20;99.90;;;;;;5033536;28;20104;-61
2022/01/11 05:55:18;;;;;;;66.30;29.70;;;-0.20;99.90;;;;;;5034674;28;20560;-61
2022/01/11 05:57:44;;;;;;;61.05;26.80;;;-0.20;99.90;;;;;;5035125;28;20032;-61
2022/01/11 06:00:15;;;;;;;62.28;29.67;;;-0.30;99.90;;;;;;5038248;28;20398;-60
2022/01/11 06:02:44;;;;;;;60.30;29.23;;;-0.30;99.90;;;;;;5039018;28;20022;-60
2022/01/11 06:05:10;;;;;;;60.50;28.25;;;-0.30;99.90;;;;;;5035251;28;20025;-60
2022/01/11 06:07:37;;;;;;;65.13;31.75;;;-0.30;99.90;;;;;;5039570;28;20074;-61
2022/01/11 06:10:03;;;;;;;66.70;29.80;;;-0.30;99.90;;;;;;5034163;28;20025;-61
2022/01/11 06:12:29;;;;;;;61.15;29.73;;;-0.30;99.90;;;;;;5043029;28;20043;-61
2022/01/11 06:14:55;;;;;;;60.45;29.23;;;-0.30;99.90;;;;;;5035607;28;20518;-60
2022/01/11 06:17:20;;;;;;;60.33;28.90;;;-0.30;99.90;;;;;;5034116;28;20029;-60
2022/01/11 06:19:47;;;;;;;66.30;28.55;;;-0.30;99.90;;;;;;5035756;28;20444;-61
2022/01/11 06:22:12;;;;;;;70.43;30.92;;;-0.30;99.90;;;;;;5037971;28;20028;-60
2022/01/11 06:24:38;;;;;;;65.30;29.25;;;-0.30;99.90;;;;;;5030222;28;20033;-61
2022/01/11 06:27:04;;;;;;;66.60;30.67;;;-0.30;99.90;;;;;;5038319;28;20037;-64
2022/01/11 06:29:29;;;;;;;63.85;29.08;;;-0.30;99.90;;;;;;5039030;28;20025;-60
2022/01/11 06:31:55;;;;;;;60.08;29.63;;;-0.30;99.90;;;;;;5039445;28;20032;-60
2022/01/11 06:34:20;;;;;;;65.07;29.33;;;-0.30;99.90;;;;;;5036786;28;20045;-60
2022/01/11 06:36:46;;;;;;;63.20;29.48;;;-0.20;99.90;;;;;;5035433;28;20079;-60
2022/01/11 06:39:11;;;;;;;61.58;28.45;;;-0.20;99.90;;;;;;5035890;28;20037;-60
2022/01/11 06:41:37;;;;;;;57.97;28.05;;;-0.20;99.90;;;;;;5041224;28;20045;-60
2022/01/11 06:44:05;;;;;;;65.85;29.48;;;-0.20;99.90;;;;;;5036359;28;20033;-60
2022/01/11 06:46:33;;;;;;;62.83;30.60;;;-0.20;99.90;;;;;;5038969;28;20032;-61
2022/01/11 06:49:01;;;;;;;66.22;30.67;;;-0.20;99.90;;;;;;5031111;28;20021;-60
2022/01/11 06:51:26;;;;;;;66.90;29.58;;;-0.20;99.90;;;;;;5032717;28;20018;-60
2022/01/11 06:53:52;;;;;;;58.45;28.75;;;-0.20;99.90;;;;;;5033163;28;20025;-60
2022/01/11 06:56:18;;;;;;;65.95;29.98;;;-0.20;99.90;;;;;;5033179;28;20033;-60
2022/01/11 06:58:44;;;;;;;57.65;28.15;;;-0.20;99.90;;;;;;5048205;28;20028;-60
2022/01/11 07:01:10;;;;;;;56.20;27.50;;;-0.20;99.90;;;;;;5053462;28;20067;-60
2022/01/11 07:03:36;;;;;;;60.78;29.95;;;-0.20;99.90;;;;;;5053326;28;20457;-60
2022/01/11 07:06:01;;;;;;;63.13;28.75;;;-0.20;99.90;;;;;;5053807;28;20112;-60
2022/01/11 07:08:27;;;;;;;59.35;29.05;;;-0.20;99.90;;;;;;5044419;28;20059;-60
2022/01/11 07:10:54;;;;;;;65.68;29.90;;;-0.30;99.90;;;;;;5034884;28;20025;-60
2022/01/11 07:13:20;;;;;;;64.63;27.73;;;-0.30;99.90;;;;;;5034499;28;20049;-60
2022/01/11 07:15:45;;;;;;;60.30;26.85;;;-0.30;99.90;;;;;;5037261;28;20080;-60
2022/01/11 07:18:12;;;;;;;60.13;28.42;;;-0.30;99.90;;;;;;5053093;28;20033;-60
2022/01/11 07:20:42;;;;;;;63.15;28.65;;;-0.30;99.90;;;;;;5051734;28;20075;-60
2022/01/11 07:23:08;;;;;;;;;;;-0.30;99.90;;;;;;5043582;28;20029;-61
2022/01/11 07:25:33;;;;;;;55.45;25.88;;;-0.30;99.90;;;;;;5049215;28;20274;-60
2022/01/11 07:28:00;;;;;;;51.83;26.88;;;-0.40;99.90;;;;;;5051862;28;20025;-61
2022/01/11 07:30:26;;;;;;;51.97;24.55;;;-0.40;99.90;;;;;;5051702;28;20021;-61
2022/01/11 07:32:52;;;;;;;57.30;29.00;;;-0.40;99.90;;;;;;5049225;28;20025;-61
2022/01/11 07:35:17;;;;;;;56.50;27.48;;;-0.40;99.90;;;;;;5051744;28;20495;-60
2022/01/11 07:37:43;;;;;;;58.75;27.58;;;-0.40;99.90;;;;;;5047082;28;20557;-61
2022/01/11 07:40:09;;;;;;;53.45;26.55;;;-0.40;99.90;;;;;;5048542;28;20017;-61
2022/01/11 07:42:35;;;;;;;60.42;29.27;;;-0.40;99.90;;;;;;5051706;28;20052;-61
2022/01/11 07:45:00;;;;;;;53.97;27.80;;;-0.40;99.90;;;;;;5051891;28;20021;-60
2022/01/11 07:47:26;;;;;;;51.45;27.00;;;-0.40;99.90;;;;;;5052261;28;20063;-61
2022/01/11 07:49:52;;;;;;;50.05;26.13;;;-0.40;99.90;;;;;;5052081;28;20457;-61
2022/01/11 07:52:17;;;;;;;51.00;25.70;;;-0.40;99.90;;;;;;5052695;28;20362;-61
2022/01/11 07:54:43;;;;;;;51.65;25.70;;;-0.40;99.90;;;;;;5050323;28;20090;-61
2022/01/11 07:57:09;;;;;;;53.42;27.70;;;-0.40;99.90;;;;;;5049619;28;20049;-61
2022/01/11 07:59:34;;;;;;;52.40;25.92;;;-0.40;99.90;;;;;;5051179;28;20028;-61
2022/01/11 08:02:00;;;;;;;52.13;26.45;;;-0.40;99.90;;;;;;5051331;28;20033;-61
2022/01/11 08:04:35;;;;;;;53.95;26.30;;;-0.40;99.90;;;;;;5052843;28;20054;-60
2022/01/11 08:07:03;;;;;;;51.50;25.35;;;-0.40;99.90;;;;;;5052598;28;20021;-61
2022/01/11 08:09:29;;;;;;;54.35;27.02;;;-0.30;99.90;;;;;;5052187;28;20057;-60
2022/01/11 08:11:56;;;;;;;61.80;28.83;;;-0.30;99.90;;;;;;5051065;28;20426;-61
2022/01/11 08:14:26;;;;;;;60.47;30.55;;;-0.30;99.90;;;;;;5052393;28;20473;-61
2022/01/11 08:16:52;;;;;;;61.65;30.25;;;-0.30;99.90;;;;;;5051966;28;20132;-60
2022/01/11 08:19:17;;;;;;;58.92;30.38;;;-0.30;99.90;;;;;;5052289;28;20116;-60
2022/01/11 08:21:43;;;;;;;59.63;29.90;;;-0.20;99.90;;;;;;5055535;28;20032;-60
2022/01/11 08:24:08;;;;;;;61.65;32.08;;;-0.20;99.90;;;;;;5054243;28;20029;-61
2022/01/11 08:26:34;;;;;;;62.38;31.63;;;-0.20;99.90;;;;;;5056218;28;20036;-61
2022/01/11 08:29:00;;;;;;;67.85;32.17;;;-0.10;99.90;;;;;;5056119;28;20029;-60
2022/01/11 08:31:25;;;;;;;61.10;31.40;;;0.00;99.90;;;;;;5055866;28;20500;-61
2022/01/11 08:33:51;;;;;;;59.60;31.73;;;0.00;99.90;;;;;;5054151;28;20118;-61
2022/01/11 08:36:16;;;;;;;65.40;32.22;;;0.10;99.90;;;;;;5036055;28;20030;-60
2022/01/11 08:38:42;;;;;;;58.67;30.75;;;0.10;99.90;;;;;;5036064;28;20084;-61
2022/01/11 08:41:11;;;;;;;58.10;31.10;;;0.20;99.90;;;;;;5035798;28;20026;-61
2022/01/11 08:43:36;;;;;;;57.50;29.98;;;0.20;99.90;;;;;;5035811;28;20111;-61
2022/01/11 08:46:03;;;;;;;61.13;30.35;;;0.30;99.90;;;;;;5035924;28;20477;-61
2022/01/11 08:48:30;;;;;;;58.80;29.60;;;0.30;99.90;;;;;;5048797;28;20021;-61
2022/01/11 08:50:55;;;;;;;62.75;31.48;;;0.40;99.90;;;;;;5053774;28;20028;-61
2022/01/11 08:53:21;;;;;;;54.83;29.10;;;0.40;99.90;;;;;;5055951;28;20025;-60
2022/01/11 08:55:49;;;;;;;56.10;28.02;;;0.40;99.90;;;;;;5055657;28;20519;-61
2022/01/11 08:58:15;;;;;;;55.60;29.70;;;0.50;99.90;;;;;;5055600;28;20029;-60
2022/01/11 09:00:41;;;;;;;51.30;28.77;;;0.50;99.90;;;;;;5055236;28;20043;-60
2022/01/11 09:03:09;;;;;;;50.88;27.48;;;0.50;99.90;;;;;;5055757;28;20033;-61
2022/01/11 09:05:34;;;;;;;49.65;26.88;;;0.50;99.90;;;;;;5054574;28;20028;-60
2022/01/11 09:08:00;;;;;;;54.15;28.42;;;0.60;99.90;;;;;;5046889;28;20084;-61
2022/01/11 09:10:26;;;;;;;51.17;26.45;;;0.60;99.90;;;;;;5042888;28;20033;-60
2022/01/11 09:13:09;;;;;;;51.03;27.50;;;0.60;99.90;;;;;;5053207;28;20032;-61
2022/01/11 09:15:34;;;;;;;47.60;27.17;;;0.70;99.90;;;;;;5053940;28;20052;-61
2022/01/11 09:18:01;;;;;;;57.95;26.98;;;0.80;99.90;;;;;;5054878;28;20552;-61
2022/01/11 09:20:26;;;;;;;48.35;24.17;;;0.80;99.90;;;;;;5053084;28;20503;-61
2022/01/11 09:22:54;;;;;;;47.05;26.52;;;0.90;99.90;;;;;;5054867;28;20025;-61
2022/01/11 09:25:21;;;;;;;50.50;28.08;;;1.00;99.90;;;;;;5055028;28;20040;-61
2022/01/11 09:27:47;;;;;;;51.25;27.25;;;1.00;99.90;;;;;;5054998;28;20065;-61
2022/01/11 09:30:14;;;;;;;47.22;26.83;;;1.10;99.90;;;;;;5054733;28;20057;-61
2022/01/11 09:32:42;;;;;;;49.30;25.65;;;1.10;99.90;;;;;;5054760;28;20025;-61
2022/01/11 09:35:10;;;;;;;48.22;25.20;;;1.20;99.90;;;;;;5053766;28;20100;-61
2022/01/11 09:37:37;;;;;;;47.28;25.73;;;1.20;99.90;;;;;;5053923;28;20052;-61
2022/01/11 09:40:08;;;;;;;39.45;23.83;;;1.30;99.90;;;;;;5054698;28;20029;-61
2022/01/11 09:42:34;;;;;;;47.50;25.58;;;1.30;99.90;;;;;;5054825;28;20044;-61
2022/01/11 09:45:00;;;;;;;43.42;23.40;;;1.30;99.90;;;;;;5054664;28;20381;-61
2022/01/11 09:47:26;;;;;;;41.03;24.10;;;1.40;99.90;;;;;;5054851;28;20025;-61
2022/01/11 09:49:52;;;;;;;48.33;26.42;;;1.50;99.90;;;;;;5037634;28;20033;-61
2022/01/11 09:52:18;;;;;;;46.20;25.63;;;1.50;99.90;;;;;;5034816;28;20477;-61
2022/01/11 09:54:47;;;;;;;42.92;23.20;;;1.60;99.90;;;;;;5034575;28;20033;-61
2022/01/11 09:57:13;;;;;;;42.57;24.03;;;1.70;99.90;;;;;;5036849;28;20043;-61
2022/01/11 09:59:39;;;;;;;47.80;24.63;;;1.70;99.90;;;;;;5054268;28;20814;-61
2022/01/11 10:02:11;;;;;;;45.60;23.92;;;1.70;99.90;;;;;;5054371;28;20082;-61
2022/01/11 10:05:41;;;;;;;41.13;23.20;;;1.70;99.90;;;;;;5054264;28;20100;-62
2022/01/11 10:08:21;;;;;;;41.67;22.33;;;1.70;99.90;;;;;;5053971;28;20037;-62
2022/01/11 10:10:46;;;;;;;43.38;23.15;;;1.70;99.90;;;;;;5054061;28;20031;-61
2022/01/11 10:13:29;;;;;;;45.50;25.02;;;1.70;99.90;;;;;;5054326;28;20029;-61
2022/01/11 10:15:54;;;;;;;45.33;25.20;;;1.70;99.90;;;;;;5053821;28;20562;-61
2022/01/11 10:18:37;;;;;;;47.65;24.95;;;1.70;99.90;;;;;;5054339;28;20036;-62
2022/01/11 10:21:33;;;;;;;44.38;23.50;;;1.70;99.90;;;;;;5053856;28;20060;-62
2022/01/11 10:23:59;;;;;;;42.45;24.00;;;1.80;99.90;;;;;;5054548;28;20109;-62
2022/01/11 10:27:36;;;;;;;;;;;;;;;;;;;;;
2022/01/11 10:34:12;;;;;;;47.97;25.63;;;1.80;99.90;;;;;;4915507;29;20047;-62
2022/01/11 10:36:45;;;;;;;48.50;24.90;;;1.90;99.90;;;;;;4959043;28;20069;-62
2022/01/11 10:39:29;;;;;;;48.60;26.77;;;1.90;99.90;;;;;;5033853;28;20091;-62
2022/01/11 10:41:56;;;;;;;46.67;25.45;;;2.00;99.90;;;;;;5053691;28;20021;-62
2022/01/11 10:44:52;;;;;;;52.60;27.45;;;2.00;99.90;;;;;;5053143;28;20651;-61
2022/01/11 10:47:24;;;;;;;50.30;24.33;;;2.10;99.90;;;;;;5053492;28;20384;-62
2022/01/11 10:49:52;;;;;;;53.40;26.73;;;2.20;99.90;;;;;;5053318;28;20480;-62
2022/01/11 10:52:56;;;;;;;;;;;;;;;;;;;;;
2022/01/11 10:58:37;;;;;;;45.55;24.35;;;2.40;99.90;;;;;;5053371;28;20366;-62
2022/01/11 11:01:04;;;;;;;48.78;25.00;;;2.40;99.90;;;;;;5053077;28;20042;-62
2022/01/11 11:03:32;;;;;;;50.67;26.90;;;2.50;99.90;;;;;;5053268;28;20056;-62
2022/01/11 11:06:17;;;;;;;45.05;24.52;;;2.50;99.90;;;;;;5053386;28;20104;-62
2022/01/11 11:08:58;;;;;;;49.63;26.20;;;2.60;99.90;;;;;;5051928;28;20392;-62
2022/01/11 11:11:23;;;;;;;49.10;24.50;;;2.70;99.90;;;;;;5051085;28;20484;-61
2022/01/11 11:13:51;;;;;;;50.00;24.30;;;2.80;99.90;;;;;;5051984;28;20083;-61
2022/01/11 11:16:26;;;;;;;50.88;25.30;;;2.90;99.90;;;;;;5052677;28;20037;-62
2022/01/11 11:19:13;;;;;;;51.03;24.88;;;3.00;99.90;;;;;;5052897;28;20029;-62
2022/01/11 11:21:58;;;;;;;48.47;24.90;;;3.10;99.90;;;;;;5052098;28;20112;-62
2022/01/11 11:25:39;;;;;;;;;;;;;;;;;;;;;
2022/01/11 11:29:56;;;;;;;;;;;;;;;;;;;;;
2022/01/11 11:31:54;;;;;;;41.20;20.98;;;3.60;99.90;;;;;;4952443;28;20072;-62
2022/01/11 11:34:22;;;;;;;42.55;23.33;;;3.80;99.90;;;;;;5030012;28;20044;-62
2022/01/11 11:37:08;;;;;;;;;;;;;;;;;;;;;
2022/01/11 11:39:35;;;;;;;37.35;20.20;;;4.10;99.90;;;;;;5051548;28;20039;-62
2022/01/11 11:42:02;;;;;;;34.38;18.98;;;4.30;99.90;;;;;;5052532;28;20029;-62
2022/01/11 11:44:29;;;;;;;36.15;19.85;;;4.60;99.90;;;;;;5052689;28;20021;-62
2022/01/11 11:47:05;;;;;;;36.28;19.15;;;4.80;99.90;;;;;;5051202;28;20083;-62
2022/01/11 11:49:53;;;;;;;35.50;18.20;;;4.90;99.90;;;;;;5052352;28;20021;-62
2022/01/11 11:52:31;;;;;;;32.15;19.67;;;5.10;99.90;;;;;;5052506;28;20129;-62
2022/01/11 11:58:21;;;;;;;31.48;17.50;;;5.20;99.80;;;;;;5048608;28;20112;-62
2022/01/11 12:00:47;;;;;;;33.90;18.67;;;5.30;99.90;;;;;;5052380;28;20056;-62
2022/01/11 12:03:25;;;;;;;29.90;17.45;;;5.50;99.90;;;;;;5052032;28;20119;-62
2022/01/11 12:06:27;;;;;;;27.65;17.02;;;5.60;98.90;;;;;;5044550;28;20078;-62
2022/01/11 12:12:09;;;;;;;25.70;16.20;;;5.90;99.00;;;;;;5042537;28;20033;-62
2022/01/11 12:14:36;;;;;;;23.52;14.32;;;5.90;98.00;;;;;;5049138;28;20075;-62
2022/01/11 12:17:22;;;;;;;30.88;15.50;;;5.90;97.90;;;;;;5048077;28;20045;-62
2022/01/11 12:19:48;;;;;;;24.63;14.75;;;5.80;97.60;;;;;;5051202;28;20066;-62
2022/01/11 12:22:35;;;;;;;24.52;15.20;;;5.70;97.70;;;;;;5051028;28;20039;-62
2022/01/11 12:25:03;;;;;;;27.20;15.43;;;5.60;97.50;;;;;;5050085;28;20029;-62
2022/01/11 12:28:04;;;;;;;23.02;14.13;;;5.50;98.10;;;;;;5045740;28;20024;-62
2022/01/11 12:30:32;;;;;;;23.15;14.15;;;5.50;98.00;;;;;;5046744;28;20562;-62
2022/01/11 12:33:21;;;;;;;24.38;12.57;;;5.40;97.90;;;;;;5045178;28;20027;-62
2022/01/11 12:35:53;;;;;;;23.70;14.23;;;5.40;97.80;;;;;;5048403;28;20477;-62
2022/01/11 12:38:19;;;;;;;21.95;13.35;;;5.40;97.80;;;;;;5048321;28;20131;-62
2022/01/11 12:40:44;;;;;;;20.92;12.60;;;5.40;98.00;;;;;;5050554;28;20025;-62
2022/01/11 12:43:18;;;;;;;23.63;13.80;;;5.50;98.40;;;;;;5051033;28;20032;-62
2022/01/11 12:46:08;;;;;;;20.40;12.43;;;5.70;98.80;;;;;;5048365;28;20092;-62
2022/01/11 12:48:47;;;;;;;18.83;11.32;;;5.90;98.70;;;;;;5064940;28;20053;-62
2022/01/11 12:51:32;;;;;;;17.35;11.18;;;6.10;98.60;;;;;;5050925;28;20423;-62
2022/01/11 12:54:30;;;;;;;15.05;10.55;;;6.40;98.70;;;;;;5048012;28;20018;-62
2022/01/11 12:57:01;;;;;;;18.85;10.95;;;6.60;98.50;;;;;;5045464;28;20495;-62
2022/01/11 12:59:30;;;;;;;17.27;10.70;;;6.80;98.30;;;;;;5048943;28;20033;-62
2022/01/11 13:02:08;;;;;;;17.33;11.05;;;6.90;97.30;;;;;;5045329;28;20048;-62
2022/01/11 13:04:42;;;;;;;18.30;10.90;;;7.00;96.20;;;;;;5051035;28;20640;-62
2022/01/11 13:07:16;;;;;;;20.08;9.95;;;7.00;94.90;;;;;;5053876;28;20021;-62
2022/01/11 13:10:19;;;;;;;14.52;9.38;;;7.10;95.00;;;;;;5055021;28;20439;-62